Time;durP1;ratioP1;P1;durP2;ratioP2;P2;SDS_P1;SDS_P2;PMS_P1;PMS_P2;Temp;Humidity;BMP_temperature;BMP_pressure;BME280_temperature;BME280_humidity;BME280_pressure;Samples;Min_cycle;Max_cycle;Signal;HPM_P1;HPM_P2
2023/06/26 00:01:05;;;;;;;5.28;3.15;;;;;;;29.36;40.12;101293.75;5044418;28;20072;-33
2023/06/26 00:03:32;;;;;;;3.03;2.55;;;;;;;29.36;40.45;101296.50;5042564;28;20159;-33
2023/06/26 00:06:00;;;;;;;3.65;2.97;;;;;;;29.36;40.88;101288.31;5075233;28;20059;-32
2023/06/26 00:08:28;;;;;;;3.25;2.67;;;;;;;29.34;40.39;101279.47;5051409;28;20051;-32
2023/06/26 00:10:55;;;;;;;4.82;3.20;;;;;;;29.34;40.55;101284.09;5048896;28;20049;-33
2023/06/26 00:13:23;;;;;;;3.67;3.05;;;;;;;29.33;40.48;101277.81;5049658;28;20049;-32
2023/06/26 00:15:50;;;;;;;3.40;2.90;;;;;;;29.31;40.72;101282.66;5048006;28;20049;-32
2023/06/26 00:18:17;;;;;;;5.32;2.80;;;;;;;29.31;40.69;101274.47;5047784;28;20080;-33
2023/06/26 00:20:44;;;;;;;3.78;3.17;;;;;;;29.30;40.89;101274.66;5046863;28;20457;-32
2023/06/26 00:23:13;;;;;;;4.03;3.13;;;;;;;29.28;40.89;101274.91;5045850;28;20102;-31
2023/06/26 00:25:40;;;;;;;4.10;2.72;;;;;;;29.28;40.99;101274.91;5045900;28;20061;-31
2023/06/26 00:28:06;;;;;;;3.58;2.90;;;;;;;29.26;40.74;101275.09;5045027;28;20057;-31
2023/06/26 00:30:33;;;;;;;4.68;2.80;;;;;;;29.25;40.60;101270.72;5041161;28;20049;-30
2023/06/26 00:32:59;;;;;;;3.28;2.67;;;;;;;29.25;40.97;101276.16;5034150;28;20046;-32
2023/06/26 00:35:26;;;;;;;3.30;2.80;;;;;;;29.25;40.84;101280.78;5038444;28;20046;-31
2023/06/26 00:37:53;;;;;;;3.45;2.95;;;;;;;29.22;41.08;101282.06;5036035;28;20530;-32
2023/06/26 00:40:19;;;;;;;3.20;2.70;;;;;;;29.21;40.90;101285.00;5038551;28;20049;-31
2023/06/26 00:42:46;;;;;;;3.90;3.00;;;;;;;29.21;40.81;101301.41;5041582;28;20054;-32
2023/06/26 00:45:12;;;;;;;3.20;2.70;;;;;;;29.18;40.62;101308.13;5039613;28;20084;-31
2023/06/26 00:47:39;;;;;;;3.28;2.90;;;;;;;29.16;40.59;101299.31;5036592;28;20057;-32
2023/06/26 00:50:06;;;;;;;2.85;2.58;;;;;;;29.13;40.52;101297.03;5070911;28;20050;-31
2023/06/26 00:52:33;;;;;;;3.17;2.85;;;;;;;29.12;40.80;101305.44;5036133;28;20129;-31
2023/06/26 00:55:00;;;;;;;3.25;2.80;;;;;;;29.10;41.15;101302.06;5044062;28;20049;-31
2023/06/26 00:57:27;;;;;;;2.80;2.50;;;;;;;29.08;41.33;101309.66;5039518;28;20085;-31
2023/06/26 00:59:53;;;;;;;3.00;2.65;;;;;;;29.06;41.66;101309.84;5041482;28;20044;-30
2023/06/26 01:02:20;;;;;;;2.88;2.42;;;;;;;29.04;41.48;101309.25;5038378;28;20433;-30
2023/06/26 01:04:52;;;;;;;3.97;3.05;;;;;;;29.02;41.24;101323.09;5040848;28;20499;-31
2023/06/26 01:07:20;;;;;;;3.90;2.72;;;;;;;29.01;41.55;101318.69;5035616;28;20359;-31
2023/06/26 01:09:48;;;;;;;3.03;2.38;;;;;;;28.98;41.19;101319.13;5037848;28;20136;-31
2023/06/26 01:12:15;;;;;;;3.28;2.67;;;;;;;28.98;41.54;101318.28;5032895;28;20045;-30
2023/06/26 01:14:42;;;;;;;3.75;2.65;;;;;;;28.95;41.82;101325.00;5038283;28;20136;-31
2023/06/26 01:17:14;;;;;;;3.60;2.75;;;;;;;28.93;41.37;101323.53;5037241;28;20053;-30
2023/06/26 01:19:42;;;;;;;3.30;2.95;;;;;;;28.91;41.85;101331.09;5041571;28;20140;-31
2023/06/26 01:22:34;;;;;;;3.20;2.90;;;;;;;28.88;41.61;101326.91;5041017;28;20084;-31
2023/06/26 01:25:38;;;;;;;;;;;;;;;28.86;42.19;101328.16;5045195;28;20134;-30
2023/06/26 01:28:07;;;;;;;4.18;2.97;;;;;;;28.88;41.73;101329.63;5032101;28;19925;-31
2023/06/26 01:30:41;;;;;;;3.33;2.85;;;;;;;28.84;41.66;101336.56;5042145;28;20486;-31
2023/06/26 01:33:08;;;;;;;3.17;2.70;;;;;;;28.82;41.48;101333.19;5042467;28;20460;-31
2023/06/26 01:35:36;;;;;;;2.83;2.42;;;;;;;28.81;41.65;101328.81;5041362;28;20240;-31
2023/06/26 01:38:20;;;;;;;3.47;2.80;;;;;;;28.77;41.91;101322.94;5040061;28;20044;-30
2023/06/26 01:40:47;;;;;;;3.55;2.58;;;;;;;28.76;41.80;101324.00;5042976;28;20440;-31
2023/06/26 01:43:36;;;;;;;3.15;2.50;;;;;;;28.72;42.39;101319.19;5045207;28;20041;-31
2023/06/26 01:46:21;;;;;;;5.05;2.40;;;;;;;28.71;42.13;101323.81;5024123;28;20103;-31
2023/06/26 01:49:11;;;;;;;2.83;2.47;;;;;;;28.68;42.53;101332.41;5044304;28;20048;-31
2023/06/26 01:52:21;;;;;;;3.72;2.50;;;;;;;28.65;42.55;101332.00;5044441;28;20111;-30
2023/06/26 01:55:02;;;;;;;3.42;2.60;;;;;;;28.63;42.15;101334.94;5046421;28;20424;-31
2023/06/26 01:57:31;;;;;;;2.97;2.35;;;;;;;28.63;42.67;101331.38;5041815;28;20440;-31
2023/06/26 01:59:58;;;;;;;4.40;2.70;;;;;;;28.61;42.30;101328.00;5039425;28;20131;-31
2023/06/26 02:02:25;;;;;;;3.38;2.30;;;;;;;28.60;42.09;101329.06;5040071;28;20469;-31
2023/06/26 02:04:52;;;;;;;2.95;2.58;;;;;;;28.57;42.63;101324.88;5042295;28;20436;-30
2023/06/26 02:07:19;;;;;;;2.92;2.15;;;;;;;28.56;42.65;101325.94;5072292;28;20049;-31
2023/06/26 02:09:45;;;;;;;3.42;2.50;;;;;;;28.55;42.03;101326.16;5039926;28;20052;-30
2023/06/26 02:12:12;;;;;;;3.15;2.35;;;;;;;28.54;42.27;101338.91;5038498;28;20084;-30
2023/06/26 02:14:39;;;;;;;3.20;2.25;;;;;;;28.52;42.85;101341.03;5039612;28;20052;-30
2023/06/26 02:17:05;;;;;;;4.03;3.05;;;;;;;28.49;42.06;101339.56;5039072;28;20057;-30
2023/06/26 02:19:32;;;;;;;2.90;2.47;;;;;;;28.49;42.20;101349.63;5036953;28;20087;-30
2023/06/26 02:21:58;;;;;;;2.92;2.63;;;;;;;28.47;42.72;101347.13;5038543;28;20091;-30
2023/06/26 02:24:27;;;;;;;3.03;2.53;;;;;;;28.47;43.04;101347.13;5043047;28;20045;-30
2023/06/26 02:26:53;;;;;;;3.35;2.65;;;;;;;28.46;43.12;101350.91;5038051;28;20092;-31
2023/06/26 02:29:20;;;;;;;2.67;2.30;;;;;;;28.44;42.98;101350.28;5037864;28;20057;-31
2023/06/26 02:31:46;;;;;;;3.17;2.45;;;;;;;28.43;43.21;101340.41;5042469;28;20224;-30
2023/06/26 02:34:13;;;;;;;2.53;2.30;;;;;;;28.43;42.72;101350.50;5033266;28;20124;-31
2023/06/26 02:36:40;;;;;;;3.80;2.50;;;;;;;28.41;42.55;101345.22;5038406;28;20377;-31
2023/06/26 02:39:06;;;;;;;2.70;2.35;;;;;;;28.40;42.73;101350.91;5031966;28;20050;-31
2023/06/26 02:41:33;;;;;;;2.42;2.22;;;;;;;28.41;42.38;101352.56;5038176;28;20096;-31
2023/06/26 02:43:59;;;;;;;2.72;2.40;;;;;;;28.39;42.38;101351.97;5035287;28;20084;-31
2023/06/26 02:46:26;;;;;;;2.97;2.42;;;;;;;28.37;42.84;101357.59;5034504;28;20107;-31
2023/06/26 02:48:53;;;;;;;3.17;2.35;;;;;;;28.37;43.27;101356.78;5040403;28;20383;-31
2023/06/26 02:51:19;;;;;;;3.30;2.58;;;;;;;28.35;42.73;101354.25;5037379;28;20373;-30
2023/06/26 02:53:46;;;;;;;3.83;2.70;;;;;;;28.34;43.03;101355.25;5041428;28;20336;-30
2023/06/26 02:56:12;;;;;;;2.60;2.15;;;;;;;28.33;43.07;101356.31;5039329;28;20115;-31
2023/06/26 02:58:39;;;;;;;3.28;2.28;;;;;;;28.33;42.49;101367.22;5039359;28;20081;-30
2023/06/26 03:01:06;;;;;;;3.85;2.78;;;;;;;28.32;42.86;101362.84;5038985;28;20068;-31
2023/06/26 03:03:40;;;;;;;3.67;2.50;;;;;;;28.31;42.97;101369.34;5038751;28;20377;-31
2023/06/26 03:06:07;;;;;;;3.08;2.42;;;;;;;28.29;43.25;101372.25;5037872;28;20114;-31
2023/06/26 03:08:38;;;;;;;3.92;2.35;;;;;;;28.29;42.95;101374.16;5039464;28;20045;-31
2023/06/26 03:11:06;;;;;;;3.58;2.40;;;;;;;28.28;43.10;101380.66;5035844;28;20057;-31
2023/06/26 03:13:34;;;;;;;4.15;2.85;;;;;;;28.27;42.62;101376.25;5038354;28;20456;-31
2023/06/26 03:16:01;;;;;;;5.18;2.92;;;;;;;28.27;43.28;101374.38;5040153;28;20057;-31
2023/06/26 03:18:28;;;;;;;4.43;2.47;;;;;;;28.26;43.19;101366.38;5038002;28;20052;-30
2023/06/26 03:20:56;;;;;;;2.92;2.22;;;;;;;28.26;42.81;101385.47;5038283;28;20057;-31
2023/06/26 03:23:24;;;;;;;3.47;2.15;;;;;;;28.24;43.14;101391.13;5042163;28;20397;-31
2023/06/26 03:25:51;;;;;;;4.60;2.35;;;;;;;28.24;42.72;101390.31;5041345;28;20049;-33
2023/06/26 03:28:17;;;;;;;4.30;2.50;;;;;;;28.23;42.79;101400.38;5040286;28;20053;-33
2023/06/26 03:30:44;;;;;;;2.83;2.40;;;;;;;28.22;43.37;101401.44;5037661;28;20111;-30
2023/06/26 03:33:11;;;;;;;3.10;2.50;;;;;;;28.22;43.40;101397.84;5042672;28;20049;-30
2023/06/26 03:35:38;;;;;;;3.60;2.67;;;;;;;28.23;42.88;101404.97;5040830;28;20081;-30
2023/06/26 03:38:05;;;;;;;3.03;2.42;;;;;;;28.23;42.83;101402.25;5043305;28;20092;-31
2023/06/26 03:40:31;;;;;;;5.15;2.88;;;;;;;28.22;43.06;101404.16;5042221;28;20442;-31
2023/06/26 03:42:58;;;;;;;4.60;2.47;;;;;;;28.21;43.53;101409.78;5041515;28;20107;-30
2023/06/26 03:45:24;;;;;;;3.42;2.28;;;;;;;28.22;43.52;101408.72;5040738;28;20049;-31
2023/06/26 03:47:51;;;;;;;4.65;2.40;;;;;;;28.20;43.56;101405.41;5040202;28;20072;-31
2023/06/26 03:50:18;;;;;;;3.53;2.45;;;;;;;28.20;43.58;101411.69;5041588;28;20096;-31
2023/06/26 03:52:45;;;;;;;3.47;2.38;;;;;;;28.21;43.19;101413.34;5038591;28;20140;-31
2023/06/26 03:55:12;;;;;;;4.20;2.30;;;;;;;28.21;43.59;101420.69;5044771;28;20053;-31
2023/06/26 03:57:39;;;;;;;3.95;2.42;;;;;;;28.19;43.41;101415.47;5036879;28;20139;-30
2023/06/26 04:00:08;;;;;;;2.88;2.13;;;;;;;28.19;43.41;101420.06;5041110;28;20064;-31
2023/06/26 04:02:35;;;;;;;3.97;2.22;;;;;;;28.20;42.83;101422.59;5045228;28;20049;-31
2023/06/26 04:05:04;;;;;;;4.53;2.42;;;;;;;28.18;43.55;101421.97;5035187;28;20057;-32
2023/06/26 04:07:31;;;;;;;5.53;2.53;;;;;;;28.19;43.06;101433.72;5038130;28;20102;-31
2023/06/26 04:09:59;;;;;;;4.15;2.30;;;;;;;28.18;43.38;101429.28;5049644;28;20053;-30
2023/06/26 04:12:25;;;;;;;6.22;2.75;;;;;;;28.19;42.91;101439.16;5050760;28;20080;-30
2023/06/26 04:14:52;;;;;;;3.53;2.15;;;;;;;28.17;43.11;101441.25;5035692;28;20054;-30
2023/06/26 04:17:19;;;;;;;4.07;2.47;;;;;;;28.17;43.27;101441.25;5052493;28;20136;-30
2023/06/26 04:19:46;;;;;;;4.50;2.50;;;;;;;28.17;43.01;101439.34;5033804;28;20068;-30
2023/06/26 04:22:12;;;;;;;3.10;2.25;;;;;;;28.17;42.93;101446.69;5037916;28;20107;-31
2023/06/26 04:24:39;;;;;;;4.20;2.22;;;;;;;28.17;42.90;101457.59;5048305;28;20049;-31
2023/06/26 04:27:06;;;;;;;4.32;2.50;;;;;;;28.17;42.94;101460.31;5047759;28;20393;-31
2023/06/26 04:29:32;;;;;;;5.75;2.47;;;;;;;28.16;43.12;101464.94;5040982;28;20492;-30
2023/06/26 04:31:59;;;;;;;4.45;2.47;;;;;;;28.16;43.15;101469.56;5037611;28;20394;-31
2023/06/26 04:34:32;;;;;;;3.05;2.13;;;;;;;28.16;43.13;101475.84;5038283;28;20057;-31
2023/06/26 04:36:59;;;;;;;2.50;2.08;;;;;;;28.15;43.20;101466.00;5042342;28;20049;-31
2023/06/26 04:39:25;;;;;;;4.03;2.00;;;;;;;28.16;43.08;101475.00;5035618;28;20085;-31
2023/06/26 04:41:52;;;;;;;3.00;2.10;;;;;;;28.15;43.41;101482.34;5038541;28;20080;-31
2023/06/26 04:44:19;;;;;;;4.80;2.50;;;;;;;28.15;43.68;101484.22;5034993;28;20053;-31
2023/06/26 04:46:45;;;;;;;4.10;2.25;;;;;;;28.15;43.17;101492.41;5038276;28;20148;-30
2023/06/26 04:49:12;;;;;;;2.97;2.08;;;;;;;28.14;43.59;101496.16;5037886;28;20160;-31
2023/06/26 04:51:40;;;;;;;3.28;2.47;;;;;;;28.14;43.10;101493.44;5040074;28;20045;-30
2023/06/26 04:54:08;;;;;;;4.00;2.03;;;;;;;28.13;43.12;101489.88;5036809;28;20083;-31
2023/06/26 04:56:35;;;;;;;4.13;2.33;;;;;;;28.13;43.01;101487.16;5069181;28;20361;-31
2023/06/26 04:59:02;;;;;;;3.20;2.33;;;;;;;28.14;43.51;101491.56;5038448;28;20045;-30
2023/06/26 05:01:29;;;;;;;3.40;2.20;;;;;;;28.14;43.25;101505.19;5041528;28;20099;-31
2023/06/26 05:03:56;;;;;;;3.03;1.85;;;;;;;28.15;43.46;101501.44;5038290;28;20099;-31
2023/06/26 05:06:23;;;;;;;3.70;2.15;;;;;;;28.15;43.45;101500.59;5029298;28;20106;-31
2023/06/26 05:08:50;;;;;;;4.10;2.25;;;;;;;28.16;43.13;101504.97;5039494;28;20102;-31
2023/06/26 05:11:17;;;;;;;2.38;1.80;;;;;;;28.16;43.67;101516.72;5038106;28;20052;-32
2023/06/26 05:13:43;;;;;;;3.03;2.08;;;;;;;28.19;43.64;101512.75;5038395;28;20088;-31
2023/06/26 05:16:10;;;;;;;3.92;2.30;;;;;;;28.20;42.90;101509.81;5040431;28;20087;-31
2023/06/26 05:18:37;;;;;;;3.22;2.17;;;;;;;28.21;42.62;101505.19;5036873;28;20056;-31
2023/06/26 05:21:04;;;;;;;3.15;2.08;;;;;;;28.22;42.90;101507.75;5038613;28;20335;-31
2023/06/26 05:23:32;;;;;;;4.20;2.10;;;;;;;28.21;43.22;101506.03;5035787;28;20049;-32
2023/06/26 05:26:02;;;;;;;3.33;1.80;;;;;;;28.23;43.25;101512.13;5038328;28;20053;-32
2023/06/26 05:28:31;;;;;;;4.20;2.03;;;;;;;28.25;43.47;101511.91;5041330;28;20061;-31
2023/06/26 05:30:58;;;;;;;3.22;1.80;;;;;;;28.26;43.20;101514.47;5038951;28;20449;-31
2023/06/26 05:33:26;;;;;;;3.75;2.08;;;;;;;28.29;43.26;101515.91;5068292;28;20045;-31
2023/06/26 05:35:54;;;;;;;3.95;2.20;;;;;;;28.30;43.28;101520.31;5041673;28;20445;-32
2023/06/26 05:38:21;;;;;;;3.55;2.05;;;;;;;28.33;42.84;101527.25;5044338;28;20179;-31
2023/06/26 05:40:48;;;;;;;4.43;2.30;;;;;;;28.34;43.31;101529.75;5043421;28;20053;-31
2023/06/26 05:43:15;;;;;;;2.53;1.60;;;;;;;28.37;43.38;101526.66;5046383;28;20049;-31
2023/06/26 05:45:42;;;;;;;3.00;2.15;;;;;;;28.41;42.61;101547.03;5044160;28;20330;-31
2023/06/26 05:48:08;;;;;;;4.72;2.63;;;;;;;28.42;42.66;101551.44;5042412;28;20053;-31
2023/06/26 05:50:36;;;;;;;3.90;2.40;;;;;;;28.44;42.58;101554.78;5044814;28;20059;-31
2023/06/26 05:53:03;;;;;;;4.13;2.17;;;;;;;28.47;42.44;101561.75;5044810;28;20099;-31
2023/06/26 05:55:30;;;;;;;4.38;2.13;;;;;;;28.49;42.50;101563.19;5046041;28;20203;-31
2023/06/26 05:57:59;;;;;;;3.33;2.38;;;;;;;28.51;42.41;101566.56;5043907;28;20110;-31
2023/06/26 06:00:27;;;;;;;3.53;2.10;;;;;;;28.53;42.31;101569.06;5043476;28;20045;-31
2023/06/26 06:02:54;;;;;;;2.38;1.88;;;;;;;28.55;42.79;101571.63;5032072;28;20088;-32
2023/06/26 06:05:22;;;;;;;2.60;1.80;;;;;;;28.56;42.22;101576.03;5042080;28;20049;-31
2023/06/26 06:07:49;;;;;;;2.47;1.63;;;;;;;28.57;42.29;101585.88;5040512;28;20053;-32
2023/06/26 06:10:16;;;;;;;3.13;2.15;;;;;;;28.57;42.68;101588.59;5031784;28;20045;-31
2023/06/26 06:12:43;;;;;;;2.75;1.67;;;;;;;28.56;42.28;101584.19;5042394;28;20626;-31
2023/06/26 06:15:09;;;;;;;3.70;2.42;;;;;;;28.56;42.77;101590.50;5038154;28;20441;-31
2023/06/26 06:17:36;;;;;;;3.03;2.03;;;;;;;28.55;42.41;101587.97;5041358;28;20103;-31
2023/06/26 06:20:04;;;;;;;2.50;1.98;;;;;;;28.53;42.83;101589.00;5032122;28;20057;-32
2023/06/26 06:22:30;;;;;;;2.58;1.67;;;;;;;28.53;42.45;101593.63;5038875;28;20346;-31
2023/06/26 06:24:57;;;;;;;2.90;2.00;;;;;;;28.52;42.77;101611.88;5042834;28;20092;-31
2023/06/26 06:27:24;;;;;;;2.17;1.48;;;;;;;28.49;42.80;101612.28;5039123;28;20091;-32
2023/06/26 06:29:50;;;;;;;2.67;1.90;;;;;;;28.49;42.89;101617.75;5033290;28;20053;-31
2023/06/26 06:32:17;;;;;;;3.40;2.17;;;;;;;28.47;43.14;101624.47;5037209;28;20103;-31
2023/06/26 06:34:44;;;;;;;3.28;2.15;;;;;;;28.45;42.60;101627.38;5035174;28;20136;-32
2023/06/26 06:37:10;;;;;;;2.90;1.75;;;;;;;28.45;42.52;101638.28;5040067;28;20488;-32
2023/06/26 06:39:37;;;;;;;3.58;1.83;;;;;;;28.45;42.46;101640.19;5036309;28;20132;-31
2023/06/26 06:42:04;;;;;;;3.30;2.00;;;;;;;28.44;42.91;101647.53;5045017;28;20079;-31
2023/06/26 06:44:31;;;;;;;2.85;2.00;;;;;;;28.44;43.24;101647.53;5037177;28;20112;-32
2023/06/26 06:46:57;;;;;;;2.10;1.60;;;;;;;28.44;42.70;101641.22;5032087;28;20123;-32
2023/06/26 06:49:24;;;;;;;2.55;1.85;;;;;;;28.45;43.25;101637.44;5034494;28;20057;-31
2023/06/26 06:51:50;;;;;;;3.67;2.08;;;;;;;28.44;42.75;101641.22;5033100;28;20057;-31
2023/06/26 06:54:17;;;;;;;2.55;1.75;;;;;;;28.44;43.11;101655.69;5035431;28;20045;-31
2023/06/26 06:56:44;;;;;;;1.80;1.50;;;;;;;28.43;42.46;101661.38;5031902;28;20053;-31
2023/06/26 06:59:11;;;;;;;2.35;1.67;;;;;;;28.43;42.61;101655.91;5031893;28;20099;-31
2023/06/26 07:01:39;;;;;;;2.25;1.65;;;;;;;28.42;43.28;101662.38;5044415;28;20045;-31
2023/06/26 07:04:05;;;;;;;2.90;1.77;;;;;;;28.42;42.60;101660.53;5042904;28;20056;-31
2023/06/26 07:06:32;;;;;;;3.13;1.63;;;;;;;28.41;42.85;101675.19;5040362;28;20428;-32
2023/06/26 07:08:59;;;;;;;3.05;1.98;;;;;;;28.40;42.85;101673.53;5044108;28;20056;-31
2023/06/26 07:11:25;;;;;;;3.25;1.83;;;;;;;28.40;42.70;101678.13;5042708;28;20045;-33
2023/06/26 07:13:52;;;;;;;2.88;1.50;;;;;;;28.38;42.92;101670.13;5042847;28;20426;-30
2023/06/26 07:16:18;;;;;;;3.45;1.92;;;;;;;28.40;42.69;101669.94;5043489;28;20102;-31
2023/06/26 07:18:45;;;;;;;4.05;2.10;;;;;;;28.41;42.44;101671.63;5043906;28;20092;-31
2023/06/26 07:21:12;;;;;;;2.05;1.50;;;;;;;28.41;42.42;101668.91;5043398;28;20137;-30
2023/06/26 07:23:38;;;;;;;3.10;1.88;;;;;;;28.41;43.17;101669.75;5045211;28;20046;-31
2023/06/26 07:26:05;;;;;;;3.63;1.65;;;;;;;28.41;42.56;101677.09;5044046;28;20123;-31
2023/06/26 07:28:31;;;;;;;2.10;1.58;;;;;;;28.40;42.47;101689.03;5035533;28;20064;-30
2023/06/26 07:30:58;;;;;;;4.03;1.70;;;;;;;28.41;42.99;101690.72;5045249;28;20433;-31
2023/06/26 07:33:25;;;;;;;1.92;1.65;;;;;;;28.39;43.27;101685.47;5043787;28;20127;-30
2023/06/26 07:35:51;;;;;;;4.07;1.75;;;;;;;28.38;42.51;101689.22;5046350;28;20057;-31
2023/06/26 07:38:18;;;;;;;3.28;1.50;;;;;;;28.39;42.75;101696.38;5044123;28;20103;-31
2023/06/26 07:40:44;;;;;;;2.33;1.60;;;;;;;28.39;42.85;101704.56;5044917;28;20104;-31
2023/06/26 07:43:11;;;;;;;3.25;1.55;;;;;;;28.40;43.14;101703.50;5041425;28;20077;-31
2023/06/26 07:45:38;;;;;;;2.75;1.52;;;;;;;28.41;43.11;101713.38;5042162;28;20053;-33
2023/06/26 07:48:06;;;;;;;2.83;1.85;;;;;;;28.40;42.85;101708.97;5043738;28;20050;-32
2023/06/26 07:50:32;;;;;;;2.03;1.55;;;;;;;28.41;42.96;101715.25;5034943;28;20053;-30
2023/06/26 07:52:59;;;;;;;2.92;1.65;;;;;;;28.42;43.20;101711.47;5043205;28;20055;-30
2023/06/26 07:55:26;;;;;;;2.47;1.70;;;;;;;28.43;42.89;101715.91;5034534;28;20129;-31
2023/06/26 07:57:55;;;;;;;2.67;1.50;;;;;;;28.44;42.22;101717.59;5036976;28;20460;-31
2023/06/26 08:00:21;;;;;;;2.20;1.38;;;;;;;28.43;42.43;101727.66;5043455;28;20056;-31
2023/06/26 08:02:48;;;;;;;2.42;1.42;;;;;;;28.44;42.29;101723.88;5043316;28;20045;-30
2023/06/26 08:05:14;;;;;;;2.50;1.85;;;;;;;28.45;42.53;101722.84;5039749;28;20059;-31
2023/06/26 08:07:41;;;;;;;2.45;1.67;;;;;;;28.45;42.20;101728.28;5040038;28;20045;-31
2023/06/26 08:10:08;;;;;;;3.65;1.50;;;;;;;28.47;42.91;101733.56;5038354;28;20049;-31
2023/06/26 08:12:36;;;;;;;1.73;1.40;;;;;;;28.47;42.19;101730.84;5044127;28;20084;-30
2023/06/26 08:15:04;;;;;;;2.45;1.65;;;;;;;28.47;42.74;101739.84;5034313;28;20072;-33
2023/06/26 08:17:31;;;;;;;4.70;1.75;;;;;;;28.48;42.29;101743.41;5039043;28;20045;-31
2023/06/26 08:19:57;;;;;;;4.60;1.52;;;;;;;28.48;42.99;101740.69;5040019;28;20349;-31
2023/06/26 08:22:24;;;;;;;3.28;1.70;;;;;;;28.48;42.18;101749.72;5034272;28;20089;-31
2023/06/26 08:24:51;;;;;;;3.67;1.50;;;;;;;28.48;42.21;101749.72;5043356;28;20072;-31
2023/06/26 08:27:17;;;;;;;2.08;1.20;;;;;;;28.49;42.96;101747.81;5049208;28;20456;-31
2023/06/26 08:29:44;;;;;;;2.38;1.27;;;;;;;28.48;42.14;101748.88;5037716;28;20053;-31
2023/06/26 08:32:10;;;;;;;2.88;1.63;;;;;;;28.49;42.80;101750.53;5038751;28;20095;-32
2023/06/26 08:34:37;;;;;;;2.33;1.25;;;;;;;28.50;42.61;101747.63;5038484;28;20115;-33
2023/06/26 08:37:04;;;;;;;2.35;1.63;;;;;;;28.51;42.67;101753.94;5035900;28;20065;-32
2023/06/26 08:39:32;;;;;;;2.47;1.48;;;;;;;28.52;42.22;101766.50;5042519;28;20064;-32
2023/06/26 08:41:59;;;;;;;2.22;1.25;;;;;;;28.52;42.90;101758.34;5038735;28;20436;-32
2023/06/26 08:44:26;;;;;;;3.03;1.55;;;;;;;28.52;42.74;101764.63;5038386;28;20049;-32
2023/06/26 08:46:52;;;;;;;2.03;1.23;;;;;;;28.53;42.68;101760.84;5037060;28;20041;-32
2023/06/26 08:49:34;;;;;;;2.47;1.35;;;;;;;28.53;42.32;101769.03;5044044;28;20056;-32
2023/06/26 08:52:22;;;;;;;1.83;1.42;;;;;;;28.55;42.56;101762.56;5037395;28;20057;-33
2023/06/26 08:54:57;;;;;;;2.63;1.33;;;;;;;28.56;42.35;101775.13;5040872;28;20099;-34
2023/06/26 08:57:26;;;;;;;2.97;1.42;;;;;;;28.57;42.65;101772.19;5042528;28;20049;-32
2023/06/26 08:59:53;;;;;;;1.83;1.25;;;;;;;28.57;42.50;101779.53;5035036;28;20072;-33
2023/06/26 09:02:20;;;;;;;2.45;1.48;;;;;;;28.58;42.75;101783.94;5040968;28;20107;-32
2023/06/26 09:04:49;;;;;;;2.65;1.20;;;;;;;28.58;42.22;101782.06;5039716;28;20045;-32
2023/06/26 09:07:16;;;;;;;2.17;1.35;;;;;;;28.60;41.93;101788.16;5039964;28;20045;-32
2023/06/26 09:09:43;;;;;;;2.78;1.13;;;;;;;28.62;42.34;101783.34;5040632;28;20053;-32
2023/06/26 09:12:10;;;;;;;4.05;1.13;;;;;;;28.63;42.67;101792.41;5039654;28;20337;-32
2023/06/26 09:14:38;;;;;;;2.40;1.33;;;;;;;28.64;41.94;101791.34;5040848;28;20092;-32
2023/06/26 09:17:05;;;;;;;2.63;1.10;;;;;;;28.66;41.95;101783.78;5040824;28;20127;-32
2023/06/26 09:19:35;;;;;;;2.70;1.45;;;;;;;28.66;42.26;101802.88;5040796;28;20453;-32
2023/06/26 09:22:03;;;;;;;2.75;1.25;;;;;;;28.68;42.22;101796.19;5038801;28;20445;-32
2023/06/26 09:24:30;;;;;;;1.90;1.33;;;;;;;28.71;42.56;101808.59;5042015;28;20049;-32
2023/06/26 09:26:57;;;;;;;2.38;1.30;;;;;;;28.72;42.45;101802.94;5039791;28;20358;-33
2023/06/26 09:29:23;;;;;;;2.70;1.42;;;;;;;28.75;42.41;101810.72;5036706;28;20136;-32
2023/06/26 09:31:51;;;;;;;2.08;1.05;;;;;;;28.78;42.41;101812.19;5038878;28;20054;-33
2023/06/26 09:34:20;;;;;;;2.75;1.30;;;;;;;28.81;41.78;101819.13;5042874;28;20050;-32
2023/06/26 09:36:48;;;;;;;1.77;1.02;;;;;;;28.82;42.64;101813.47;5038947;28;20321;-32
2023/06/26 09:39:15;;;;;;;2.45;1.67;;;;;;;28.86;41.77;101822.09;5037726;28;20092;-32
2023/06/26 09:41:42;;;;;;;1.92;1.30;;;;;;;28.88;42.31;101828.19;5034720;28;20469;-32
2023/06/26 09:44:13;;;;;;;2.30;1.20;;;;;;;28.89;41.70;101825.25;5037456;28;20049;-32
2023/06/26 09:46:40;;;;;;;3.30;1.00;;;;;;;28.92;41.64;101830.31;5036426;28;20119;-33
2023/06/26 09:49:12;;;;;;;1.52;1.23;;;;;;;28.94;42.22;101824.66;5039897;28;20368;-32
2023/06/26 09:51:41;;;;;;;3.30;1.15;;;;;;;28.96;41.76;101834.31;5034517;28;20147;-32
2023/06/26 09:54:09;;;;;;;3.00;0.88;;;;;;;28.98;42.09;101829.53;5044361;28;20051;-33
2023/06/26 09:56:36;;;;;;;2.40;1.00;;;;;;;29.00;42.31;101841.09;5046891;28;20061;-32
2023/06/26 09:59:05;;;;;;;2.40;1.30;;;;;;;29.02;42.33;101855.38;5044370;28;20180;-32
2023/06/26 10:01:32;;;;;;;1.23;1.13;;;;;;;29.05;41.77;101850.56;5046148;28;20092;-32
2023/06/26 10:03:59;;;;;;;1.67;1.05;;;;;;;29.07;41.51;101856.66;5047818;28;20041;-32
2023/06/26 10:06:36;;;;;;;3.58;1.00;;;;;;;29.09;41.52;101860.88;5048802;28;20379;-32
2023/06/26 10:09:04;;;;;;;2.08;1.10;;;;;;;29.11;41.50;101866.16;5041307;28;20041;-32
2023/06/26 10:11:37;;;;;;;1.67;0.88;;;;;;;29.13;41.40;101864.88;5046970;28;20143;-32
2023/06/26 10:14:05;;;;;;;2.35;1.00;;;;;;;29.16;42.09;101871.84;5046477;28;20251;-32
2023/06/26 10:16:46;;;;;;;2.15;1.23;;;;;;;29.18;41.69;101873.28;5044750;28;20079;-32
2023/06/26 10:19:18;;;;;;;1.77;1.13;;;;;;;29.20;41.24;101881.31;5045355;28;20099;-32
2023/06/26 10:21:45;;;;;;;2.05;0.98;;;;;;;29.23;41.63;101889.09;5041382;28;20063;-33
2023/06/26 10:24:13;;;;;;;4.07;1.10;;;;;;;29.24;41.40;101891.59;5042673;28;20056;-33
2023/06/26 10:26:45;;;;;;;1.60;1.00;;;;;;;29.25;41.50;101897.91;5042907;28;20053;-32
2023/06/26 10:29:15;;;;;;;1.50;0.93;;;;;;;29.27;41.04;101902.13;5035481;28;20445;-32
2023/06/26 10:31:50;;;;;;;3.30;1.10;;;;;;;29.29;41.09;101884.69;5040175;28;20144;-32
2023/06/26 10:34:16;;;;;;;2.10;1.00;;;;;;;29.29;41.21;101885.53;5034122;28;20049;-32
2023/06/26 10:36:43;;;;;;;2.05;1.10;;;;;;;29.31;41.15;101899.84;5033351;28;20111;-32
2023/06/26 10:39:10;;;;;;;1.50;1.05;;;;;;;29.33;41.04;101888.69;5041736;28;20075;-33
2023/06/26 10:41:38;;;;;;;1.35;1.05;;;;;;;29.34;41.72;101896.69;5040406;28;20341;-33
2023/06/26 10:44:18;;;;;;;1.38;1.00;;;;;;;29.34;41.17;101888.47;5039944;28;20460;-33
2023/06/26 10:46:55;;;;;;;1.90;0.93;;;;;;;29.35;41.61;101890.19;5034455;28;20815;-32
2023/06/26 10:49:27;;;;;;;1.75;0.93;;;;;;;29.35;41.19;101898.38;5036610;28;20443;-32
2023/06/26 10:51:57;;;;;;;1.45;0.85;;;;;;;29.36;41.50;101894.59;5031296;28;20429;-32
2023/06/26 10:54:29;;;;;;;1.60;0.90;;;;;;;29.36;41.17;101905.53;5038446;28;20333;-33
2023/06/26 10:56:56;;;;;;;1.60;0.90;;;;;;;29.38;41.27;101899.84;5034534;28;20042;-32
2023/06/26 10:59:28;;;;;;;1.48;0.90;;;;;;;29.37;41.42;101915.41;5037228;28;20095;-32
2023/06/26 11:01:59;;;;;;;1.80;1.10;;;;;;;29.37;41.48;101909.94;5040876;28;20057;-32
2023/06/26 11:04:46;;;;;;;1.33;0.85;;;;;;;29.37;41.32;101907.19;5038388;28;20095;-32
2023/06/26 11:07:22;;;;;;;2.05;1.00;;;;;;;29.38;41.18;101911.63;5033980;28;20058;-32
2023/06/26 11:10:07;;;;;;;2.00;1.08;;;;;;;29.39;41.49;101907.84;5038173;28;20345;-32
2023/06/26 11:12:44;;;;;;;1.17;0.90;;;;;;;29.42;40.94;101912.88;5034393;28;20049;-32
2023/06/26 11:15:15;;;;;;;1.90;0.82;;;;;;;29.41;40.75;101924.03;5032893;28;20323;-32
2023/06/26 11:17:43;;;;;;;1.85;0.80;;;;;;;29.42;41.06;101928.44;5038628;28;20063;-32
2023/06/26 11:20:12;;;;;;;3.17;0.93;;;;;;;29.42;40.76;101929.28;5030816;28;20053;-32
2023/06/26 11:22:41;;;;;;;1.17;0.68;;;;;;;29.44;41.03;101926.38;5030374;28;20049;-32
2023/06/26 11:25:09;;;;;;;1.60;0.90;;;;;;;29.44;41.10;101932.66;5044195;28;20049;-32
2023/06/26 11:27:43;;;;;;;2.25;1.00;;;;;;;29.44;41.12;101932.66;5041000;28;20048;-32
2023/06/26 11:30:11;;;;;;;2.40;1.00;;;;;;;29.45;40.92;101939.81;5031352;28;20053;-33